Time;durP1;ratioP1;P1;durP2;ratioP2;P2;SDS_P1;SDS_P2;PMS_P1;PMS_P2;Temp;Humidity;BMP_temperature;BMP_pressure;BME280_temperature;BME280_humidity;BME280_pressure;Samples;Min_cycle;Max_cycle;Signal;HPM_P1;HPM_P2
2024/04/16 00:02:07;;;;;;;0.83;0.83;;;15.70;51.10;16.10;96826.00;;;;5347370;26;20717;-58
2024/04/16 00:04:36;;;;;;;0.80;0.80;;;15.60;51.00;16.10;96831.00;;;;5347681;26;20229;-58
2024/04/16 00:07:05;;;;;;;0.80;0.80;;;15.70;51.10;16.10;96831.00;;;;5347880;26;20253;-58
2024/04/16 00:09:33;;;;;;;0.77;0.77;;;15.60;51.00;16.10;96812.00;;;;5346840;26;20610;-58
2024/04/16 00:12:00;;;;;;;0.80;0.80;;;15.60;51.00;16.10;96806.00;;;;5347486;26;20353;-58
2024/04/16 00:14:28;;;;;;;1.00;1.00;;;15.60;51.00;16.10;96816.00;;;;5347262;26;20244;-58
2024/04/16 00:16:54;;;;;;;1.00;0.90;;;15.60;50.90;16.10;96817.00;;;;5347362;26;20300;-58
2024/04/16 00:19:23;;;;;;;0.87;0.87;;;15.60;51.00;16.10;96807.00;;;;5346886;26;20351;-58
2024/04/16 00:21:49;;;;;;;0.80;0.80;;;15.60;51.00;16.10;96809.00;;;;5347195;26;20253;-58
2024/04/16 00:24:20;;;;;;;0.80;0.80;;;15.60;50.90;16.10;96800.00;;;;5347445;26;20691;-58
2024/04/16 00:26:46;;;;;;;1.20;0.70;;;15.60;51.00;16.10;96798.00;;;;5373274;26;20336;-58
2024/04/16 00:29:15;;;;;;;0.77;0.77;;;15.60;50.90;16.10;96813.00;;;;5381322;26;20655;-58
2024/04/16 00:31:41;;;;;;;0.70;0.70;;;15.60;51.00;16.10;96811.00;;;;5381429;26;20382;-58
2024/04/16 00:34:09;;;;;;;0.70;0.70;;;15.60;51.00;16.10;96804.00;;;;5380944;26;20244;-57
2024/04/16 00:36:36;;;;;;;0.70;0.70;;;15.60;51.00;16.10;96800.00;;;;5381961;26;20303;-58
2024/04/16 00:39:05;;;;;;;0.70;0.70;;;15.60;50.90;16.10;96790.00;;;;5381273;26;20475;-58
2024/04/16 00:41:33;;;;;;;0.90;0.90;;;15.60;51.00;16.10;96796.00;;;;5357709;26;20248;-58
2024/04/16 00:44:02;;;;;;;1.13;0.90;;;15.60;51.00;16.10;96820.00;;;;5347314;26;20291;-58
2024/04/16 00:46:28;;;;;;;0.83;0.83;;;15.60;51.00;16.10;96822.00;;;;5346782;26;20363;-58
2024/04/16 00:48:57;;;;;;;0.83;0.83;;;15.60;51.00;16.10;96827.00;;;;5346307;26;20843;-58
2024/04/16 00:51:23;;;;;;;0.70;0.70;;;15.60;51.00;16.00;96829.00;;;;5346766;26;20303;-58
2024/04/16 00:53:52;;;;;;;0.70;0.70;;;15.50;51.00;16.00;96812.00;;;;5346736;26;20233;-58
2024/04/16 00:56:19;;;;;;;0.70;0.70;;;15.60;50.90;16.00;96822.00;;;;5366206;26;20311;-58
2024/04/16 00:58:50;;;;;;;0.80;0.80;;;15.60;50.90;16.10;96820.00;;;;5380897;26;20384;-58
2024/04/16 01:01:16;;;;;;;0.70;0.70;;;15.60;50.90;16.00;96815.00;;;;5381654;26;20710;-58
2024/04/16 01:03:45;;;;;;;0.80;0.80;;;15.50;50.90;16.00;96826.00;;;;5381726;26;20808;-58
2024/04/16 01:06:12;;;;;;;0.70;0.70;;;15.50;50.90;16.00;96825.00;;;;5359367;26;20342;-58
2024/04/16 01:08:40;;;;;;;0.80;0.80;;;15.60;50.90;16.00;96824.00;;;;5345610;26;20228;-58
2024/04/16 01:11:06;;;;;;;0.80;0.80;;;15.50;50.90;16.00;96807.00;;;;5363268;26;20370;-58
2024/04/16 01:13:35;;;;;;;0.67;0.67;;;15.50;50.90;16.00;96801.00;;;;5381450;26;20239;-58
2024/04/16 01:16:04;;;;;;;0.70;0.70;;;15.50;50.90;16.00;96806.00;;;;5381437;26;20300;-58
2024/04/16 01:18:33;;;;;;;0.63;0.63;;;15.50;50.90;16.00;96822.00;;;;5379649;26;20732;-58
2024/04/16 01:20:59;;;;;;;0.70;0.70;;;15.50;50.90;16.00;96822.00;;;;5381372;26;20311;-58
2024/04/16 01:23:30;;;;;;;0.80;0.80;;;15.50;50.90;16.00;96843.00;;;;5381320;26;20345;-58
2024/04/16 01:25:56;;;;;;;0.77;0.77;;;15.50;50.90;16.00;96846.00;;;;5379561;26;20292;-58
2024/04/16 01:28:25;;;;;;;0.70;0.70;;;15.50;51.00;16.00;96838.00;;;;5380271;26;20317;-58
2024/04/16 01:30:51;;;;;;;0.70;0.70;;;15.50;50.90;16.00;96842.00;;;;5381487;26;20381;-58
2024/04/16 01:33:19;;;;;;;0.60;0.60;;;15.50;50.90;16.00;96841.00;;;;5381240;26;20348;-58
2024/04/16 01:35:45;;;;;;;0.80;0.80;;;15.50;50.90;16.00;96845.00;;;;5380336;26;20853;-58
2024/04/16 01:38:14;;;;;;;0.80;0.80;;;15.50;51.60;16.00;96855.00;;;;5380743;26;20239;-58
2024/04/16 01:40:43;;;;;;;0.63;0.63;;;15.50;50.90;16.00;96857.00;;;;5379355;26;20359;-58
2024/04/16 01:43:11;;;;;;;0.40;0.40;;;15.50;50.90;16.00;96846.00;;;;5379439;26;20234;-58
2024/04/16 01:45:37;;;;;;;0.90;0.70;;;15.40;50.80;16.00;96841.00;;;;5381105;26;20288;-58
2024/04/16 01:48:06;;;;;;;0.60;0.60;;;15.40;50.80;16.00;96854.00;;;;5380883;26;20340;-58
2024/04/16 01:50:32;;;;;;;0.50;0.50;;;15.40;50.80;16.00;96863.00;;;;5354910;26;20386;-58
2024/04/16 01:53:01;;;;;;;0.90;0.90;;;15.40;50.80;15.90;96843.00;;;;5345974;26;20630;-58
2024/04/16 01:55:27;;;;;;;0.60;0.60;;;15.40;50.80;15.90;96843.00;;;;5352472;26;20797;-58
2024/04/16 01:57:58;;;;;;;0.60;0.60;;;15.40;50.80;15.90;96849.00;;;;5381056;26;20336;-58
2024/04/16 02:00:24;;;;;;;0.80;0.70;;;15.40;50.80;15.90;96849.00;;;;5379932;26;20307;-58
2024/04/16 02:02:53;;;;;;;0.60;0.60;;;15.40;50.80;15.90;96843.00;;;;5380766;26;20246;-58
2024/04/16 02:05:19;;;;;;;0.70;0.70;;;15.40;50.80;15.90;96831.00;;;;5379781;26;20242;-58
2024/04/16 02:07:48;;;;;;;0.40;0.40;;;15.40;50.80;15.90;96825.00;;;;5380674;26;20234;-58
2024/04/16 02:10:15;;;;;;;0.80;0.80;;;15.40;50.70;15.90;96832.00;;;;5374249;26;20314;-58
2024/04/16 02:12:44;;;;;;;1.13;0.70;;;15.40;50.80;15.90;96827.00;;;;5345748;26;20633;-58
2024/04/16 02:15:14;;;;;;;0.70;0.70;;;15.40;50.70;15.90;96821.00;;;;5345830;26;20642;-58
2024/04/16 02:17:42;;;;;;;0.60;0.60;;;15.40;50.80;15.90;96827.00;;;;5345672;26;20362;-58
2024/04/16 02:20:09;;;;;;;0.70;0.70;;;15.40;50.80;15.90;96829.00;;;;5362507;26;21151;-58
2024/04/16 02:22:37;;;;;;;0.80;0.80;;;15.40;50.80;15.90;96828.00;;;;5380365;26;20328;-58
2024/04/16 02:25:10;;;;;;;0.70;0.70;;;15.40;50.80;15.90;96838.00;;;;5378772;26;20290;-58
2024/04/16 02:27:38;;;;;;;0.57;0.57;;;15.40;50.90;15.90;96837.00;;;;5380385;26;20262;-58
2024/04/16 02:30:06;;;;;;;0.80;0.73;;;15.40;50.90;15.90;96836.00;;;;5379431;26;20350;-58
2024/04/16 02:32:37;;;;;;;0.67;0.67;;;15.40;50.80;15.90;96837.00;;;;5380343;26;20310;-58
2024/04/16 02:35:04;;;;;;;0.80;0.80;;;15.40;50.80;15.90;96850.00;;;;5379462;26;20318;-58
2024/04/16 02:37:33;;;;;;;0.60;0.60;;;15.40;50.80;15.90;96840.00;;;;5380307;26;20236;-58
2024/04/16 02:39:59;;;;;;;0.60;0.60;;;15.40;50.80;15.90;96840.00;;;;5378084;26;20350;-58
2024/04/16 02:42:27;;;;;;;0.70;0.70;;;15.40;50.80;15.90;96856.00;;;;5345223;26;20245;-58
2024/04/16 02:44:53;;;;;;;0.70;0.70;;;15.30;50.80;15.90;96866.00;;;;5345429;26;20296;-58
2024/04/16 02:47:22;;;;;;;0.53;0.53;;;15.40;50.80;15.90;96859.00;;;;5345241;26;20236;-58
2024/04/16 02:49:50;;;;;;;0.60;0.60;;;15.30;50.80;15.90;96859.00;;;;5349595;26;20369;-58
2024/04/16 02:52:19;;;;;;;0.60;0.60;;;15.40;50.80;15.80;96860.00;;;;5379818;26;20300;-58
2024/04/16 02:54:45;;;;;;;0.50;0.50;;;15.30;50.80;15.80;96849.00;;;;5379554;26;20295;-58
2024/04/16 02:57:13;;;;;;;0.60;0.60;;;15.40;50.80;15.80;96844.00;;;;5377441;26;20239;-58
2024/04/16 02:59:40;;;;;;;0.57;0.57;;;15.30;50.80;15.80;96831.00;;;;5379009;26;20287;-58
2024/04/16 03:02:08;;;;;;;0.93;0.73;;;15.30;50.80;15.80;96838.00;;;;5379857;26;20247;-58
2024/04/16 03:04:34;;;;;;;0.73;0.73;;;15.30;50.80;15.80;96841.00;;;;5378870;26;20864;-58
2024/04/16 03:07:06;;;;;;;0.80;0.67;;;15.30;50.80;15.80;96849.00;;;;5379644;26;20248;-58
2024/04/16 03:09:32;;;;;;;0.70;0.70;;;15.30;50.80;15.80;96852.00;;;;5378941;26;20278;-58
2024/04/16 03:12:00;;;;;;;0.70;0.70;;;15.30;50.80;15.80;96852.00;;;;5377958;26;20315;-58
2024/04/16 03:14:26;;;;;;;0.80;0.40;;;15.30;50.80;15.80;96842.00;;;;5379598;26;20694;-58
2024/04/16 03:16:55;;;;;;;0.50;0.50;;;15.30;50.80;15.80;96835.00;;;;5379705;26;20232;-58
2024/04/16 03:19:21;;;;;;;0.70;0.70;;;15.30;50.80;15.80;96835.00;;;;5359888;26;20338;-58
2024/04/16 03:21:50;;;;;;;0.60;0.60;;;15.30;50.80;15.80;96848.00;;;;5344767;26;20275;-58
2024/04/16 03:24:19;;;;;;;0.53;0.50;;;15.30;50.80;15.80;96864.00;;;;5344724;26;20229;-58
2024/04/16 03:26:48;;;;;;;0.60;0.60;;;15.30;50.80;15.80;96858.00;;;;5370451;26;20297;-58
2024/04/16 03:29:13;;;;;;;0.73;0.70;;;15.30;50.80;15.80;96840.00;;;;5378537;26;20343;-58
2024/04/16 03:31:42;;;;;;;0.50;0.50;;;15.30;50.80;15.80;96840.00;;;;5379322;26;20250;-58
2024/04/16 03:34:08;;;;;;;0.60;0.60;;;15.30;50.80;15.80;96824.00;;;;5356818;26;20436;-58
2024/04/16 03:36:37;;;;;;;0.70;0.60;;;15.30;50.80;15.80;96827.00;;;;5344222;26;20244;-58
2024/04/16 03:39:05;;;;;;;0.50;0.50;;;15.30;50.80;15.80;96841.00;;;;5343604;26;20340;-58
2024/04/16 03:41:37;;;;;;;0.73;0.50;;;15.30;50.80;15.80;96828.00;;;;5367136;26;20293;-58
2024/04/16 03:44:05;;;;;;;0.80;0.80;;;15.30;50.80;15.80;96827.00;;;;5379239;26;20295;-58
2024/04/16 03:46:31;;;;;;;0.50;0.50;;;15.30;50.80;15.80;96853.00;;;;5379040;26;20826;-58
2024/04/16 03:49:00;;;;;;;0.50;0.50;;;15.30;50.80;15.80;96881.00;;;;5369689;26;20292;-58
2024/04/16 03:51:26;;;;;;;0.50;0.50;;;15.30;50.80;15.70;96889.00;;;;5343991;26;20436;-58
2024/04/16 03:53:55;;;;;;;0.53;0.53;;;15.30;50.80;15.70;96893.00;;;;5344255;26;20305;-58
2024/04/16 03:56:21;;;;;;;0.60;0.60;;;15.20;50.70;15.70;96879.00;;;;5363272;26;20854;-58
2024/04/16 03:59:14;;;;;;;0.60;0.57;;;15.20;50.70;15.70;96890.00;;;;5378081;26;20244;-58
2024/04/16 04:01:42;;;;;;;1.03;0.80;;;15.20;50.70;15.70;96895.00;;;;5378942;26;20293;-58
2024/04/16 04:04:11;;;;;;;0.60;0.60;;;15.20;50.70;15.70;96905.00;;;;5377465;26;20234;-58
2024/04/16 04:06:37;;;;;;;0.50;0.50;;;15.20;50.70;15.70;96919.00;;;;5380040;26;20344;-58
2024/04/16 04:09:06;;;;;;;0.60;0.60;;;15.20;50.70;15.70;96913.00;;;;5381483;26;20236;-58
2024/04/16 04:11:32;;;;;;;0.77;0.60;;;15.20;50.70;15.70;96904.00;;;;5380567;26;20315;-58
2024/04/16 04:14:03;;;;;;;0.60;0.60;;;15.20;50.70;15.70;96896.00;;;;5382591;26;20337;-58
2024/04/16 04:16:29;;;;;;;0.60;0.60;;;15.20;50.70;15.70;96887.00;;;;5382454;26;20303;-58
2024/04/16 04:18:58;;;;;;;0.60;0.60;;;15.20;50.70;15.70;96892.00;;;;5358672;26;20247;-58
2024/04/16 04:21:24;;;;;;;0.50;0.50;;;15.20;50.70;15.70;96884.00;;;;5347037;26;20287;-58
2024/04/16 04:23:53;;;;;;;0.50;0.50;;;15.20;50.70;15.70;96893.00;;;;5347336;26;20232;-58
2024/04/16 04:26:19;;;;;;;0.77;0.60;;;15.20;50.70;15.70;96899.00;;;;5367351;26;20413;-58
2024/04/16 04:28:48;;;;;;;0.60;0.60;;;15.20;50.70;15.70;96913.00;;;;5381152;26;20224;-58
2024/04/16 04:31:18;;;;;;;0.67;0.67;;;15.20;50.70;15.70;96907.00;;;;5381897;26;20307;-58
2024/04/16 04:33:47;;;;;;;0.73;0.53;;;15.20;50.70;15.70;96900.00;;;;5381930;26;20774;-58
2024/04/16 04:36:14;;;;;;;0.50;0.50;;;15.20;50.70;15.70;96893.00;;;;5379779;26;20252;-58
2024/04/16 04:38:43;;;;;;;0.60;0.60;;;15.20;50.70;15.70;96914.00;;;;5381042;26;20277;-58
2024/04/16 04:41:11;;;;;;;0.50;0.50;;;15.20;50.60;15.60;96913.00;;;;5363378;26;20315;-58
2024/04/16 04:43:40;;;;;;;0.60;0.60;;;15.20;50.60;15.70;96909.00;;;;5347124;26;20240;-58
2024/04/16 04:46:06;;;;;;;0.60;0.60;;;15.20;50.60;15.70;96924.00;;;;5347084;26;20292;-58
2024/04/16 04:48:37;;;;;;;0.60;0.60;;;15.10;50.70;15.60;96919.00;;;;5353145;26;20348;-58
2024/04/16 04:51:04;;;;;;;0.57;0.57;;;15.20;50.70;15.70;96930.00;;;;5381801;26;20292;-58
2024/04/16 04:53:32;;;;;;;0.50;0.50;;;15.20;50.60;15.60;96930.00;;;;5381608;26;20287;-58
2024/04/16 04:55:58;;;;;;;0.80;0.60;;;15.10;50.70;15.60;96941.00;;;;5379489;26;20698;-58
2024/04/16 04:58:27;;;;;;;0.60;0.60;;;15.10;50.60;15.60;96946.00;;;;5380865;26;20345;-58
2024/04/16 05:00:53;;;;;;;0.70;0.70;;;15.10;50.70;15.60;96951.00;;;;5381735;26;20378;-58
2024/04/16 05:03:22;;;;;;;0.63;0.63;;;15.20;50.60;15.60;96940.00;;;;5380515;26;21098;-58
2024/04/16 05:05:50;;;;;;;0.60;0.60;;;15.10;50.60;15.60;96950.00;;;;5381670;26;20294;-58
2024/04/16 05:08:19;;;;;;;0.67;0.53;;;15.10;50.60;15.60;96951.00;;;;5380627;26;20265;-58
2024/04/16 05:10:50;;;;;;;0.60;0.60;;;15.20;50.60;15.60;96952.00;;;;5379636;26;20282;-58
2024/04/16 05:13:18;;;;;;;0.60;0.60;;;15.10;50.60;15.60;96949.00;;;;5381464;26;20235;-58
2024/04/16 05:15:45;;;;;;;0.90;0.60;;;15.10;50.70;15.60;96957.00;;;;5381506;26;20292;-58
2024/04/16 05:18:14;;;;;;;0.83;0.70;;;15.10;50.60;15.60;96948.00;;;;5379786;26;20235;-58
2024/04/16 05:20:40;;;;;;;0.50;0.50;;;15.10;50.70;15.60;96948.00;;;;5381097;26;20794;-58
2024/04/16 05:23:11;;;;;;;0.50;0.50;;;15.10;50.60;15.60;96943.00;;;;5381309;26;20299;-58
2024/04/16 05:25:37;;;;;;;0.60;0.60;;;15.10;50.60;15.60;96939.00;;;;5379086;26;20381;-58
2024/04/16 05:28:07;;;;;;;0.60;0.60;;;15.10;50.60;15.60;96942.00;;;;5381423;26;20244;-58
2024/04/16 05:30:33;;;;;;;0.50;0.50;;;15.10;50.60;15.60;96956.00;;;;5380328;26;20392;-58
2024/04/16 05:33:02;;;;;;;0.70;0.70;;;15.10;50.60;15.60;96949.00;;;;5372786;26;20757;-58
2024/04/16 05:35:28;;;;;;;0.73;0.67;;;15.10;50.60;15.60;96951.00;;;;5346227;26;20276;-57
2024/04/16 05:37:56;;;;;;;0.63;0.63;;;15.10;50.60;15.60;96960.00;;;;5346383;26;20240;-57
2024/04/16 05:40:25;;;;;;;0.57;0.57;;;15.10;50.60;15.60;96971.00;;;;5350821;26;20237;-58
2024/04/16 05:42:54;;;;;;;0.50;0.50;;;15.10;50.60;15.60;96975.00;;;;5381016;26;20774;-58
2024/04/16 05:45:20;;;;;;;0.60;0.60;;;15.10;50.60;15.60;96977.00;;;;5381123;26;20691;-58
2024/04/16 05:47:48;;;;;;;0.50;0.50;;;15.10;50.70;15.60;96966.00;;;;5380768;26;20624;-58
2024/04/16 05:50:14;;;;;;;0.50;0.50;;;15.10;50.60;15.60;96963.00;;;;5350284;26;20720;-58
2024/04/16 05:52:43;;;;;;;0.50;0.50;;;15.10;50.60;15.60;96963.00;;;;5346133;26;20240;-58
2024/04/16 05:55:09;;;;;;;0.60;0.57;;;15.10;50.60;15.60;96969.00;;;;5348662;26;20284;-58
2024/04/16 05:57:40;;;;;;;0.67;0.47;;;15.10;50.60;15.60;96969.00;;;;5381039;26;20309;-58
2024/04/16 06:00:08;;;;;;;1.10;0.70;;;15.10;51.30;15.50;96961.00;;;;5380061;26;20791;-58
2024/04/16 06:02:36;;;;;;;0.70;0.70;;;15.10;50.60;15.50;96969.00;;;;5380924;26;20294;-58
2024/04/16 06:05:02;;;;;;;0.60;0.60;;;15.10;50.60;15.60;96961.00;;;;5351813;26;20295;-58
2024/04/16 06:07:31;;;;;;;0.60;0.50;;;15.10;50.60;15.50;96959.00;;;;5345690;26;20235;-58
2024/04/16 06:09:57;;;;;;;0.33;0.33;;;15.10;50.60;15.50;96962.00;;;;5344853;26;20732;-58
2024/04/16 06:12:26;;;;;;;0.93;0.47;;;15.10;50.60;15.50;96971.00;;;;5345954;26;20356;-58
2024/04/16 06:14:55;;;;;;;0.70;0.67;;;15.00;50.50;15.50;96961.00;;;;5345657;26;20693;-58
2024/04/16 06:17:23;;;;;;;0.50;0.50;;;15.10;50.60;15.50;96970.00;;;;5345753;26;20299;-58
2024/04/16 06:19:49;;;;;;;0.60;0.60;;;15.10;50.60;15.50;96967.00;;;;5345133;26;20308;-58
2024/04/16 06:22:18;;;;;;;0.50;0.50;;;15.00;50.50;15.50;96954.00;;;;5345371;26;20348;-58
2024/04/16 06:24:44;;;;;;;0.70;0.70;;;15.10;50.60;15.50;96950.00;;;;5345745;26;20232;-58
2024/04/16 06:27:12;;;;;;;0.53;0.53;;;15.00;50.50;15.50;96961.00;;;;5376912;26;20236;-58
2024/04/16 06:29:38;;;;;;;0.67;0.67;;;15.00;50.50;15.50;96956.00;;;;5378644;26;20294;-58
2024/04/16 06:32:11;;;;;;;0.77;0.50;;;15.00;50.50;15.50;96953.00;;;;5380354;26;20247;-58
2024/04/16 06:34:37;;;;;;;0.50;0.50;;;15.00;50.50;15.50;96957.00;;;;5378318;26;20298;-58
2024/04/16 06:37:06;;;;;;;0.60;0.60;;;15.00;50.50;15.50;96952.00;;;;5380345;26;20271;-58
2024/04/16 06:39:32;;;;;;;0.50;0.50;;;15.10;50.50;15.50;96953.00;;;;5379387;26;20302;-58
2024/04/16 06:42:02;;;;;;;0.70;0.60;;;15.00;50.50;15.50;96942.00;;;;5378526;26;20360;-58
2024/04/16 06:44:28;;;;;;;0.50;0.50;;;15.00;50.50;15.50;96939.00;;;;5380201;26;20809;-58
2024/04/16 06:46:56;;;;;;;0.60;0.60;;;15.00;50.50;15.50;96938.00;;;;5380031;26;20720;-58
2024/04/16 06:49:26;;;;;;;0.50;0.50;;;15.00;50.40;15.50;96931.00;;;;5377465;26;20802;-58
2024/04/16 06:51:54;;;;;;;0.50;0.50;;;15.00;50.50;15.50;96937.00;;;;5380139;26;20294;-58
2024/04/16 06:54:20;;;;;;;0.90;0.70;;;15.00;50.40;15.50;96948.00;;;;5380157;26;20357;-57
2024/04/16 06:56:49;;;;;;;0.73;0.53;;;15.00;50.40;15.50;96943.00;;;;5378680;26;20247;-58
2024/04/16 06:59:15;;;;;;;0.60;0.60;;;15.00;50.40;15.50;96943.00;;;;5379358;26;20698;-58
2024/04/16 07:01:43;;;;;;;0.70;0.70;;;15.00;50.40;15.50;96944.00;;;;5379941;26;20243;-57
2024/04/16 07:04:11;;;;;;;0.60;0.60;;;15.00;50.40;15.50;96948.00;;;;5366025;26;20295;-58
2024/04/16 07:06:42;;;;;;;0.43;0.43;;;15.10;50.50;15.50;96945.00;;;;5344973;26;20298;-58
2024/04/16 07:09:08;;;;;;;0.50;0.50;;;15.00;50.40;15.50;96948.00;;;;5343993;26;20328;-58
2024/04/16 07:11:37;;;;;;;0.50;0.50;;;15.00;50.40;15.50;96945.00;;;;5368096;26;20830;-58
2024/04/16 07:14:03;;;;;;;0.40;0.40;;;15.00;50.40;15.50;96939.00;;;;5379833;26;20298;-58
2024/04/16 07:16:32;;;;;;;0.50;0.50;;;15.00;50.40;15.50;96932.00;;;;5379477;26;20336;-58
2024/04/16 07:18:58;;;;;;;0.67;0.67;;;15.00;50.40;15.50;96926.00;;;;5377684;26;20230;-58
2024/04/16 07:21:26;;;;;;;0.40;0.40;;;15.10;50.50;15.50;96923.00;;;;5379500;26;20360;-58
2024/04/16 07:23:55;;;;;;;0.50;0.50;;;15.00;50.40;15.50;96918.00;;;;5379531;26;20353;-58
2024/04/16 07:26:23;;;;;;;0.60;0.60;;;15.00;50.40;15.50;96928.00;;;;5358056;26;20309;-58
2024/04/16 07:28:49;;;;;;;0.60;0.50;;;15.00;50.40;15.50;96928.00;;;;5343562;26;20950;-58
2024/04/16 07:31:18;;;;;;;0.60;0.60;;;15.10;50.40;15.50;96937.00;;;;5344478;26;20252;-58
2024/04/16 07:33:44;;;;;;;0.50;0.50;;;15.00;50.40;15.50;96937.00;;;;5353062;26;20249;-58
2024/04/16 07:36:13;;;;;;;0.40;0.40;;;15.10;50.40;15.50;96952.00;;;;5379452;26;20273;-58
2024/04/16 07:38:39;;;;;;;0.67;0.63;;;15.00;50.30;15.50;96947.00;;;;5378395;26;20282;-58
2024/04/16 07:41:10;;;;;;;0.60;0.50;;;15.00;50.30;15.50;96936.00;;;;5361887;26;20243;-58
2024/04/16 07:43:36;;;;;;;0.90;0.63;;;15.10;50.40;15.50;96926.00;;;;5347632;26;20295;-58
2024/04/16 07:46:05;;;;;;;0.50;0.50;;;15.10;50.30;15.50;96922.00;;;;5347584;26;20812;-58
2024/04/16 07:48:31;;;;;;;0.60;0.60;;;15.10;50.30;15.50;96918.00;;;;5346659;26;20366;-58
2024/04/16 07:50:59;;;;;;;0.63;0.63;;;15.10;50.30;15.60;96912.00;;;;5368972;26;20646;-58
2024/04/16 07:53:25;;;;;;;0.50;0.50;;;15.10;50.30;15.60;96907.00;;;;5382653;26;20601;-58
2024/04/16 07:55:54;;;;;;;0.50;0.50;;;15.10;50.20;15.60;96912.00;;;;5380710;26;20236;-58
2024/04/16 07:58:23;;;;;;;0.50;0.50;;;15.10;50.20;15.60;96914.00;;;;5381591;26;20235;-57
2024/04/16 08:00:54;;;;;;;0.80;0.60;;;15.20;50.20;15.60;96912.00;;;;5382535;26;20417;-58
2024/04/16 08:03:20;;;;;;;0.67;0.60;;;15.10;50.10;15.60;96935.00;;;;5382563;26;20243;-58
2024/04/16 08:05:49;;;;;;;0.50;0.50;;;15.10;50.10;15.60;96935.00;;;;5381636;26;20243;-58
2024/04/16 08:08:15;;;;;;;0.50;0.50;;;15.10;50.10;15.60;96936.00;;;;5382115;26;20283;-58
2024/04/16 08:10:44;;;;;;;0.50;0.50;;;15.20;50.00;15.60;96929.00;;;;5380218;26;20243;-58
2024/04/16 08:13:10;;;;;;;0.50;0.50;;;15.20;50.00;15.60;96940.00;;;;5382383;26;20344;-58
2024/04/16 08:15:45;;;;;;;0.57;0.57;;;15.20;50.00;15.60;96928.00;;;;5382237;26;20243;-58
2024/04/16 08:18:11;;;;;;;0.50;0.50;;;15.20;49.90;15.70;96932.00;;;;5381784;26;20349;-58
2024/04/16 08:20:40;;;;;;;0.60;0.60;;;15.20;49.90;15.70;96911.00;;;;5380172;26;20763;-58
2024/04/16 08:23:06;;;;;;;1.13;0.80;;;15.30;49.90;15.70;96915.00;;;;5382170;26;20287;-58
2024/04/16 08:25:34;;;;;;;0.40;0.40;;;15.30;49.80;15.80;96920.00;;;;5379784;26;20331;-58
2024/04/16 08:28:01;;;;;;;0.73;0.67;;;15.30;49.70;15.80;96920.00;;;;5382145;26;20611;-58
2024/04/16 08:30:29;;;;;;;0.50;0.50;;;15.30;49.50;15.80;96929.00;;;;5381094;26;20737;-58
2024/04/16 08:32:58;;;;;;;0.80;0.50;;;15.40;49.40;15.80;96933.00;;;;5382162;26;20228;-58
2024/04/16 08:35:29;;;;;;;0.60;0.60;;;15.40;49.40;15.80;96930.00;;;;5353499;26;20356;-58
2024/04/16 08:37:55;;;;;;;0.50;0.50;;;15.40;49.40;15.80;96931.00;;;;5347065;26;20232;-58
2024/04/16 08:40:24;;;;;;;0.50;0.50;;;15.40;49.30;15.90;96926.00;;;;5346316;26;20270;-58
2024/04/16 08:42:52;;;;;;;0.90;0.60;;;15.40;49.30;15.80;96929.00;;;;5347427;26;20364;-58
2024/04/16 08:45:24;;;;;;;0.83;0.60;;;15.40;49.30;15.80;96938.00;;;;5347131;26;20239;-58
2024/04/16 08:47:54;;;;;;;1.10;0.70;;;15.40;49.30;15.90;96921.00;;;;5347134;26;20358;-58
2024/04/16 08:50:24;;;;;;;1.53;0.57;;;15.40;49.40;15.80;96913.00;;;;5346947;26;20274;-58
2024/04/16 08:52:55;;;;;;;0.90;0.70;;;15.40;49.40;15.80;96911.00;;;;5346291;26;20710;-58
2024/04/16 08:55:21;;;;;;;1.40;0.60;;;15.40;49.40;15.80;96910.00;;;;5352884;26;20249;-58
2024/04/16 08:57:52;;;;;;;0.70;0.53;;;15.40;49.40;15.80;96916.00;;;;5381733;26;20243;-58
2024/04/16 09:00:19;;;;;;;0.50;0.50;;;15.40;49.30;15.80;96908.00;;;;5380673;26;20350;-58
2024/04/16 09:02:48;;;;;;;0.40;0.40;;;15.40;49.30;15.80;96906.00;;;;5381594;26;20675;-58
2024/04/16 09:05:17;;;;;;;0.70;0.60;;;15.40;49.30;15.80;96913.00;;;;5371236;26;20300;-58
2024/04/16 09:07:46;;;;;;;0.70;0.50;;;15.40;49.30;15.90;96901.00;;;;5346616;26;20689;-58
2024/04/16 09:10:17;;;;;;;0.70;0.60;;;15.40;49.20;15.80;96894.00;;;;5349493;26;22919;-58
2024/04/16 09:12:43;;;;;;;0.43;0.40;;;15.40;49.30;15.80;96881.00;;;;5381516;26;20296;-58
2024/04/16 09:15:14;;;;;;;0.50;0.50;;;15.40;49.30;15.90;96898.00;;;;5381509;26;20278;-58
2024/04/16 09:17:47;;;;;;;0.50;0.50;;;15.40;49.30;15.90;96877.00;;;;5381480;26;20345;-58
2024/04/16 09:20:19;;;;;;;0.60;0.60;;;15.40;49.30;15.90;96855.00;;;;5349419;26;20341;-58
2024/04/16 09:22:50;;;;;;;0.73;0.60;;;15.40;49.20;15.90;96859.00;;;;5346464;26;20703;-58
2024/04/16 09:25:20;;;;;;;0.40;0.40;;;15.50;49.20;15.90;96862.00;;;;5346481;26;20778;-58
2024/04/16 09:27:47;;;;;;;0.80;0.50;;;15.50;49.20;15.90;96864.00;;;;5346040;26;20351;-58
2024/04/16 09:30:17;;;;;;;1.13;0.53;;;15.50;49.20;15.90;96868.00;;;;5345346;26;20238;-58
2024/04/16 09:32:46;;;;;;;0.60;0.60;;;15.50;49.20;15.90;96872.00;;;;5346131;26;20288;-58
2024/04/16 09:35:16;;;;;;;0.50;0.50;;;15.50;49.20;15.90;96878.00;;;;5346687;26;20293;-58
2024/04/16 09:37:43;;;;;;;0.43;0.43;;;15.50;49.20;15.90;96876.00;;;;5346187;26;20299;-58
2024/04/16 09:40:17;;;;;;;0.33;0.33;;;15.50;49.10;15.90;96867.00;;;;5348171;26;20244;-58
2024/04/16 09:42:43;;;;;;;0.93;0.60;;;15.50;49.10;15.90;96864.00;;;;5381321;26;20284;-58
2024/04/16 09:45:12;;;;;;;0.50;0.50;;;15.50;49.10;15.90;96863.00;;;;5381332;26;20228;-59
2024/04/16 09:47:40;;;;;;;0.57;0.43;;;15.50;49.10;15.90;96864.00;;;;5381189;26;20288;-58
2024/04/16 09:50:10;;;;;;;0.83;0.60;;;15.40;49.10;15.90;96869.00;;;;5372967;26;20243;-58
2024/04/16 09:52:36;;;;;;;0.50;0.50;;;15.40;49.20;15.90;96864.00;;;;5345932;26;20296;-58
2024/04/16 09:55:08;;;;;;;0.47;0.43;;;15.40;49.10;15.90;96852.00;;;;5347036;26;20303;-58
2024/04/16 09:57:38;;;;;;;1.30;0.63;;;15.40;49.20;15.90;96832.00;;;;5381021;26;20235;-58
2024/04/16 10:00:11;;;;;;;2.00;0.60;;;15.40;49.20;15.80;96825.00;;;;5380012;26;20235;-58
2024/04/16 10:02:41;;;;;;;0.50;0.50;;;15.40;49.20;15.80;96817.00;;;;5380117;26;20229;-58
2024/04/16 10:05:13;;;;;;;0.60;0.60;;;15.40;49.20;15.80;96813.00;;;;5379476;26;20692;-58
2024/04/16 10:07:41;;;;;;;0.40;0.40;;;15.40;49.20;15.80;96800.00;;;;5380615;26;20342;-58
2024/04/16 10:10:12;;;;;;;0.50;0.50;;;15.40;49.20;15.80;96811.00;;;;5377870;26;20240;-58
2024/04/16 10:12:42;;;;;;;0.53;0.53;;;15.40;49.20;15.80;96792.00;;;;5380585;26;20292;-58
2024/04/16 10:15:15;;;;;;;0.60;0.60;;;15.40;49.20;15.80;96796.00;;;;5380687;26;20246;-58
2024/04/16 10:17:51;;;;;;;0.97;0.60;;;15.40;49.20;15.80;96792.00;;;;5380632;26;20374;-58
2024/04/16 10:20:23;;;;;;;0.50;0.50;;;15.40;49.20;15.80;96789.00;;;;5358101;26;20342;-58
2024/04/16 10:22:57;;;;;;;0.50;0.50;;;15.40;49.20;15.80;96792.00;;;;5345631;26;20240;-58
2024/04/16 10:25:33;;;;;;;0.87;0.63;;;15.40;49.20;15.80;96791.00;;;;5351152;26;20753;-58
2024/04/16 10:28:04;;;;;;;0.97;0.70;;;15.40;49.20;15.80;96782.00;;;;5380322;26;20297;-58
2024/04/16 10:30:34;;;;;;;0.60;0.60;;;15.40;49.20;15.80;96770.00;;;;5379364;26;20578;-58
2024/04/16 10:33:01;;;;;;;0.50;0.40;;;15.40;49.20;15.80;96759.00;;;;5380655;26;20783;-58
2024/04/16 10:35:30;;;;;;;0.50;0.50;;;15.40;49.20;15.80;96783.00;;;;5369584;26;20790;-58
2024/04/16 10:37:57;;;;;;;0.33;0.30;;;15.40;49.20;15.80;96776.00;;;;5345445;26;20267;-58
2024/04/16 10:40:30;;;;;;;1.00;0.50;;;15.40;49.20;15.80;96779.00;;;;5350728;26;20286;-58
2024/04/16 10:43:00;;;;;;;1.03;0.50;;;15.40;49.10;15.80;96786.00;;;;5380264;26;20290;-58
2024/04/16 10:45:31;;;;;;;0.53;0.53;;;15.30;49.20;15.80;96785.00;;;;5380263;26;20239;-58
2024/04/16 10:47:58;;;;;;;0.70;0.60;;;15.30;49.20;15.80;96768.00;;;;5373160;26;20399;-58
2024/04/16 10:50:27;;;;;;;0.97;0.60;;;15.40;49.20;15.80;96785.00;;;;5344180;26;20746;-58
2024/04/16 10:52:53;;;;;;;0.40;0.40;;;15.40;49.20;15.80;96779.00;;;;5345242;26;20783;-58
2024/04/16 10:55:22;;;;;;;0.67;0.67;;;15.30;49.10;15.80;96781.00;;;;5350110;26;20271;-58
2024/04/16 10:57:49;;;;;;;0.97;0.60;;;15.40;49.10;15.80;96772.00;;;;5379987;26;20365;-58
2024/04/16 11:00:21;;;;;;;0.50;0.50;;;15.40;49.00;15.80;96783.00;;;;5379114;26;20232;-58